sensor_id;sensor_type;location;lat;lon;timestamp;P1;durP1;ratioP1;P2;durP2;ratioP2
9924;SDS011;5001;51.674;7.868;2023-12-29T00:00:20;15.50;;;14.50;;
9924;SDS011;5001;51.674;7.868;2023-12-29T00:02:47;15.47;;;14.43;;
9924;SDS011;5001;51.674;7.868;2023-12-29T00:05:14;15.73;;;14.57;;
9924;SDS011;5001;51.674;7.868;2023-12-29T00:07:42;16.00;;;14.70;;
9924;SDS011;5001;51.674;7.868;2023-12-29T00:10:10;15.40;;;14.20;;
9924;SDS011;5001;51.674;7.868;2023-12-29T00:12:38;15.37;;;14.27;;
9924;SDS011;5001;51.674;7.868;2023-12-29T00:15:05;16.07;;;14.90;;
9924;SDS011;5001;51.674;7.868;2023-12-29T00:17:35;16.07;;;14.73;;
9924;SDS011;5001;51.674;7.868;2023-12-29T00:20:07;19.13;;;15.13;;
9924;SDS011;5001;51.674;7.868;2023-12-29T00:22:35;15.63;;;14.43;;
9924;SDS011;5001;51.674;7.868;2023-12-29T00:25:02;15.50;;;14.40;;
9924;SDS011;5001;51.674;7.868;2023-12-29T00:27:29;15.80;;;14.50;;
9924;SDS011;5001;51.674;7.868;2023-12-29T00:29:56;15.20;;;14.20;;
9924;SDS011;5001;51.674;7.868;2023-12-29T00:32:25;15.77;;;14.40;;
9924;SDS011;5001;51.674;7.868;2023-12-29T00:34:52;15.57;;;14.50;;
9924;SDS011;5001;51.674;7.868;2023-12-29T00:37:20;15.80;;;14.57;;
9924;SDS011;5001;51.674;7.868;2023-12-29T00:39:47;15.27;;;14.37;;
9924;SDS011;5001;51.674;7.868;2023-12-29T00:42:16;15.50;;;14.40;;
9924;SDS011;5001;51.674;7.868;2023-12-29T00:44:43;15.77;;;14.60;;
9924;SDS011;5001;51.674;7.868;2023-12-29T00:47:10;15.77;;;14.53;;
9924;SDS011;5001;51.674;7.868;2023-12-29T00:49:39;15.47;;;14.37;;
9924;SDS011;5001;51.674;7.868;2023-12-29T00:52:08;15.50;;;14.50;;
9924;SDS011;5001;51.674;7.868;2023-12-29T00:54:36;15.60;;;14.60;;
9924;SDS011;5001;51.674;7.868;2023-12-29T00:57:03;15.03;;;14.03;;
9924;SDS011;5001;51.674;7.868;2023-12-29T00:59:33;15.37;;;14.27;;
9924;SDS011;5001;51.674;7.868;2023-12-29T01:02:06;15.30;;;14.23;;
9924;SDS011;5001;51.674;7.868;2023-12-29T01:04:34;15.50;;;14.30;;
9924;SDS011;5001;51.674;7.868;2023-12-29T01:07:03;15.80;;;14.60;;
9924;SDS011;5001;51.674;7.868;2023-12-29T01:09:30;15.70;;;14.40;;
9924;SDS011;5001;51.674;7.868;2023-12-29T01:11:58;15.10;;;14.20;;
9924;SDS011;5001;51.674;7.868;2023-12-29T01:14:28;15.53;;;14.30;;
9924;SDS011;5001;51.674;7.868;2023-12-29T01:16:56;15.60;;;14.30;;
9924;SDS011;5001;51.674;7.868;2023-12-29T01:19:25;15.40;;;14.13;;
9924;SDS011;5001;51.674;7.868;2023-12-29T01:21:53;15.10;;;14.20;;
9924;SDS011;5001;51.674;7.868;2023-12-29T01:24:21;15.57;;;14.33;;
9924;SDS011;5001;51.674;7.868;2023-12-29T01:26:58;16.93;;;15.10;;
9924;SDS011;5001;51.674;7.868;2023-12-29T01:29:25;14.70;;;13.90;;
9924;SDS011;5001;51.674;7.868;2023-12-29T01:31:52;15.30;;;14.20;;
9924;SDS011;5001;51.674;7.868;2023-12-29T01:34:20;16.03;;;14.60;;
9924;SDS011;5001;51.674;7.868;2023-12-29T01:36:48;15.27;;;14.27;;
9924;SDS011;5001;51.674;7.868;2023-12-29T01:39:18;16.17;;;14.87;;
9924;SDS011;5001;51.674;7.868;2023-12-29T01:41:45;15.00;;;14.10;;
9924;SDS011;5001;51.674;7.868;2023-12-29T01:44:20;15.30;;;14.30;;
9924;SDS011;5001;51.674;7.868;2023-12-29T01:46:51;16.60;;;15.20;;
9924;SDS011;5001;51.674;7.868;2023-12-29T01:49:21;15.10;;;14.20;;
9924;SDS011;5001;51.674;7.868;2023-12-29T01:51:54;15.10;;;14.20;;
9924;SDS011;5001;51.674;7.868;2023-12-29T01:54:34;16.00;;;14.73;;
9924;SDS011;5001;51.674;7.868;2023-12-29T01:57:06;15.43;;;14.40;;
9924;SDS011;5001;51.674;7.868;2023-12-29T01:59:35;15.13;;;14.00;;
9924;SDS011;5001;51.674;7.868;2023-12-29T02:02:04;15.43;;;14.23;;
9924;SDS011;5001;51.674;7.868;2023-12-29T02:04:31;15.53;;;14.43;;
9924;SDS011;5001;51.674;7.868;2023-12-29T02:07:00;15.00;;;14.10;;
9924;SDS011;5001;51.674;7.868;2023-12-29T02:09:27;15.77;;;14.30;;
9924;SDS011;5001;51.674;7.868;2023-12-29T02:11:54;15.50;;;14.23;;
9924;SDS011;5001;51.674;7.868;2023-12-29T02:14:23;15.30;;;14.30;;
9924;SDS011;5001;51.674;7.868;2023-12-29T02:19:41;16.10;;;15.00;;
9924;SDS011;5001;51.674;7.868;2023-12-29T02:22:12;15.00;;;14.10;;
9924;SDS011;5001;51.674;7.868;2023-12-29T02:24:39;15.67;;;14.47;;
9924;SDS011;5001;51.674;7.868;2023-12-29T02:27:57;15.70;;;14.60;;
9924;SDS011;5001;51.674;7.868;2023-12-29T02:30:08;15.30;;;13.90;;
9924;SDS011;5001;51.674;7.868;2023-12-29T02:32:49;15.47;;;14.40;;
9924;SDS011;5001;51.674;7.868;2023-12-29T02:35:25;15.00;;;14.00;;
9924;SDS011;5001;51.674;7.868;2023-12-29T02:37:57;14.77;;;13.87;;
9924;SDS011;5001;51.674;7.868;2023-12-29T02:40:32;16.30;;;15.00;;
9924;SDS011;5001;51.674;7.868;2023-12-29T02:43:00;15.77;;;14.50;;
9924;SDS011;5001;51.674;7.868;2023-12-29T02:45:27;15.03;;;14.13;;
9924;SDS011;5001;51.674;7.868;2023-12-29T02:47:54;15.27;;;14.37;;
9924;SDS011;5001;51.674;7.868;2023-12-29T02:50:21;16.60;;;14.50;;
9924;SDS011;5001;51.674;7.868;2023-12-29T02:55:42;14.40;;;13.50;;
9924;SDS011;5001;51.674;7.868;2023-12-29T02:58:09;14.43;;;13.03;;
9924;SDS011;5001;51.674;7.868;2023-12-29T03:04:38;13.50;;;12.40;;
9924;SDS011;5001;51.674;7.868;2023-12-29T03:07:05;13.20;;;12.20;;
9924;SDS011;5001;51.674;7.868;2023-12-29T03:09:33;13.47;;;12.60;;
9924;SDS011;5001;51.674;7.868;2023-12-29T03:12:00;12.73;;;11.93;;
9924;SDS011;5001;51.674;7.868;2023-12-29T03:14:27;13.80;;;12.60;;
9924;SDS011;5001;51.674;7.868;2023-12-29T03:16:54;13.40;;;12.50;;
9924;SDS011;5001;51.674;7.868;2023-12-29T03:19:21;13.03;;;12.00;;
9924;SDS011;5001;51.674;7.868;2023-12-29T03:21:49;13.10;;;12.00;;
9924;SDS011;5001;51.674;7.868;2023-12-29T03:24:16;12.90;;;12.07;;
9924;SDS011;5001;51.674;7.868;2023-12-29T03:26:43;13.07;;;12.17;;
9924;SDS011;5001;51.674;7.868;2023-12-29T03:29:10;13.27;;;12.17;;
9924;SDS011;5001;51.674;7.868;2023-12-29T03:31:38;12.60;;;11.80;;
9924;SDS011;5001;51.674;7.868;2023-12-29T03:37:09;11.40;;;10.80;;
9924;SDS011;5001;51.674;7.868;2023-12-29T03:39:36;11.77;;;10.90;;
9924;SDS011;5001;51.674;7.868;2023-12-29T03:42:03;12.17;;;11.30;;
9924;SDS011;5001;51.674;7.868;2023-12-29T03:44:30;12.60;;;11.60;;
9924;SDS011;5001;51.674;7.868;2023-12-29T03:46:57;12.20;;;11.20;;
9924;SDS011;5001;51.674;7.868;2023-12-29T03:49:25;12.47;;;11.30;;
9924;SDS011;5001;51.674;7.868;2023-12-29T03:51:52;11.73;;;10.93;;
9924;SDS011;5001;51.674;7.868;2023-12-29T03:54:19;11.50;;;10.80;;
9924;SDS011;5001;51.674;7.868;2023-12-29T03:56:47;11.73;;;10.80;;
9924;SDS011;5001;51.674;7.868;2023-12-29T03:59:14;12.00;;;11.00;;
9924;SDS011;5001;51.674;7.868;2023-12-29T04:01:41;14.50;;;11.60;;
9924;SDS011;5001;51.674;7.868;2023-12-29T04:04:09;11.60;;;10.93;;
9924;SDS011;5001;51.674;7.868;2023-12-29T04:06:36;13.03;;;11.80;;
9924;SDS011;5001;51.674;7.868;2023-12-29T04:09:03;12.30;;;11.60;;
9924;SDS011;5001;51.674;7.868;2023-12-29T04:11:31;12.40;;;11.50;;
9924;SDS011;5001;51.674;7.868;2023-12-29T04:13:58;12.93;;;11.40;;
9924;SDS011;5001;51.674;7.868;2023-12-29T04:16:26;12.67;;;11.43;;
9924;SDS011;5001;51.674;7.868;2023-12-29T04:18:54;12.33;;;11.20;;
9924;SDS011;5001;51.674;7.868;2023-12-29T04:21:21;11.77;;;11.07;;
9924;SDS011;5001;51.674;7.868;2023-12-29T04:23:48;12.20;;;11.30;;
9924;SDS011;5001;51.674;7.868;2023-12-29T04:26:15;12.37;;;11.37;;
9924;SDS011;5001;51.674;7.868;2023-12-29T04:28:43;12.67;;;11.40;;
9924;SDS011;5001;51.674;7.868;2023-12-29T04:31:10;12.80;;;11.70;;
9924;SDS011;5001;51.674;7.868;2023-12-29T04:33:38;12.23;;;11.40;;
9924;SDS011;5001;51.674;7.868;2023-12-29T04:36:05;11.73;;;11.03;;
9924;SDS011;5001;51.674;7.868;2023-12-29T04:38:32;12.50;;;11.40;;
9924;SDS011;5001;51.674;7.868;2023-12-29T04:40:59;12.53;;;11.60;;
9924;SDS011;5001;51.674;7.868;2023-12-29T04:43:26;12.30;;;11.67;;
9924;SDS011;5001;51.674;7.868;2023-12-29T04:45:53;13.20;;;12.20;;
9924;SDS011;5001;51.674;7.868;2023-12-29T04:48:20;13.57;;;12.50;;
9924;SDS011;5001;51.674;7.868;2023-12-29T04:50:47;13.53;;;12.50;;
9924;SDS011;5001;51.674;7.868;2023-12-29T04:53:14;13.53;;;12.20;;
9924;SDS011;5001;51.674;7.868;2023-12-29T04:55:41;13.67;;;12.47;;
9924;SDS011;5001;51.674;7.868;2023-12-29T04:58:08;12.57;;;11.77;;
9924;SDS011;5001;51.674;7.868;2023-12-29T05:00:35;12.30;;;11.50;;
9924;SDS011;5001;51.674;7.868;2023-12-29T05:03:02;15.67;;;12.20;;
9924;SDS011;5001;51.674;7.868;2023-12-29T05:05:30;13.33;;;12.03;;
9924;SDS011;5001;51.674;7.868;2023-12-29T05:07:56;13.23;;;11.87;;
9924;SDS011;5001;51.674;7.868;2023-12-29T05:10:24;13.80;;;12.50;;
9924;SDS011;5001;51.674;7.868;2023-12-29T05:12:51;13.03;;;12.13;;
9924;SDS011;5001;51.674;7.868;2023-12-29T05:15:18;12.90;;;12.00;;
9924;SDS011;5001;51.674;7.868;2023-12-29T05:17:45;13.43;;;12.47;;
9924;SDS011;5001;51.674;7.868;2023-12-29T05:20:12;12.90;;;12.13;;
9924;SDS011;5001;51.674;7.868;2023-12-29T05:22:39;12.47;;;11.67;;
9924;SDS011;5001;51.674;7.868;2023-12-29T05:25:06;13.50;;;12.30;;
9924;SDS011;5001;51.674;7.868;2023-12-29T05:27:33;13.30;;;12.13;;
9924;SDS011;5001;51.674;7.868;2023-12-29T05:30:01;13.23;;;12.30;;
9924;SDS011;5001;51.674;7.868;2023-12-29T05:32:29;15.20;;;12.63;;
9924;SDS011;5001;51.674;7.868;2023-12-29T05:34:56;12.90;;;12.00;;
9924;SDS011;5001;51.674;7.868;2023-12-29T05:37:23;13.10;;;12.17;;
9924;SDS011;5001;51.674;7.868;2023-12-29T05:39:50;13.53;;;12.33;;
9924;SDS011;5001;51.674;7.868;2023-12-29T05:42:17;13.67;;;12.57;;
9924;SDS011;5001;51.674;7.868;2023-12-29T05:44:44;13.03;;;12.23;;
9924;SDS011;5001;51.674;7.868;2023-12-29T05:47:11;13.70;;;12.63;;
9924;SDS011;5001;51.674;7.868;2023-12-29T05:49:38;13.33;;;12.30;;
9924;SDS011;5001;51.674;7.868;2023-12-29T05:52:06;13.67;;;12.60;;
9924;SDS011;5001;51.674;7.868;2023-12-29T05:54:33;13.10;;;12.20;;
9924;SDS011;5001;51.674;7.868;2023-12-29T05:57:01;13.53;;;12.30;;
9924;SDS011;5001;51.674;7.868;2023-12-29T05:59:28;13.97;;;12.77;;
9924;SDS011;5001;51.674;7.868;2023-12-29T06:01:57;15.30;;;13.90;;
9924;SDS011;5001;51.674;7.868;2023-12-29T06:04:24;13.07;;;12.13;;
9924;SDS011;5001;51.674;7.868;2023-12-29T06:06:51;13.20;;;12.30;;
9924;SDS011;5001;51.674;7.868;2023-12-29T06:09:18;15.17;;;13.70;;
9924;SDS011;5001;51.674;7.868;2023-12-29T06:11:45;14.23;;;13.07;;
9924;SDS011;5001;51.674;7.868;2023-12-29T06:14:12;14.80;;;13.60;;
9924;SDS011;5001;51.674;7.868;2023-12-29T06:16:39;13.37;;;12.47;;
9924;SDS011;5001;51.674;7.868;2023-12-29T06:19:07;15.27;;;14.17;;
9924;SDS011;5001;51.674;7.868;2023-12-29T06:21:41;14.73;;;13.37;;
9924;SDS011;5001;51.674;7.868;2023-12-29T06:24:12;14.03;;;12.90;;
9924;SDS011;5001;51.674;7.868;2023-12-29T06:26:39;13.57;;;12.50;;
9924;SDS011;5001;51.674;7.868;2023-12-29T06:29:09;13.33;;;12.33;;
9924;SDS011;5001;51.674;7.868;2023-12-29T06:31:39;13.30;;;12.50;;
9924;SDS011;5001;51.674;7.868;2023-12-29T06:34:08;14.53;;;13.33;;
9924;SDS011;5001;51.674;7.868;2023-12-29T06:36:36;13.40;;;12.43;;
9924;SDS011;5001;51.674;7.868;2023-12-29T06:39:03;12.90;;;12.10;;
9924;SDS011;5001;51.674;7.868;2023-12-29T06:41:30;16.13;;;13.23;;
9924;SDS011;5001;51.674;7.868;2023-12-29T06:43:57;13.33;;;12.57;;
9924;SDS011;5001;51.674;7.868;2023-12-29T06:46:24;13.80;;;12.87;;
9924;SDS011;5001;51.674;7.868;2023-12-29T06:48:51;13.73;;;12.70;;
9924;SDS011;5001;51.674;7.868;2023-12-29T06:51:18;14.23;;;13.20;;
9924;SDS011;5001;51.674;7.868;2023-12-29T06:53:46;16.70;;;13.10;;
9924;SDS011;5001;51.674;7.868;2023-12-29T06:56:14;14.67;;;13.33;;
9924;SDS011;5001;51.674;7.868;2023-12-29T06:58:42;13.70;;;12.70;;
9924;SDS011;5001;51.674;7.868;2023-12-29T07:01:09;13.90;;;12.70;;
9924;SDS011;5001;51.674;7.868;2023-12-29T07:03:36;13.20;;;12.40;;
9924;SDS011;5001;51.674;7.868;2023-12-29T07:06:03;14.30;;;12.83;;
9924;SDS011;5001;51.674;7.868;2023-12-29T07:08:31;13.33;;;12.33;;
9924;SDS011;5001;51.674;7.868;2023-12-29T07:10:58;13.57;;;12.47;;
9924;SDS011;5001;51.674;7.868;2023-12-29T07:13:25;13.53;;;12.37;;
9924;SDS011;5001;51.674;7.868;2023-12-29T07:15:52;13.10;;;12.23;;
9924;SDS011;5001;51.674;7.868;2023-12-29T07:18:19;13.83;;;12.53;;
9924;SDS011;5001;51.674;7.868;2023-12-29T07:20:46;14.03;;;13.03;;
9924;SDS011;5001;51.674;7.868;2023-12-29T07:23:13;14.33;;;12.50;;
9924;SDS011;5001;51.674;7.868;2023-12-29T07:25:40;12.87;;;12.07;;
9924;SDS011;5001;51.674;7.868;2023-12-29T07:28:07;14.10;;;12.87;;
9924;SDS011;5001;51.674;7.868;2023-12-29T07:30:34;13.63;;;12.57;;
9924;SDS011;5001;51.674;7.868;2023-12-29T07:33:01;13.97;;;12.60;;
9924;SDS011;5001;51.674;7.868;2023-12-29T07:35:29;13.77;;;12.40;;
9924;SDS011;5001;51.674;7.868;2023-12-29T07:37:56;13.77;;;12.43;;
9924;SDS011;5001;51.674;7.868;2023-12-29T07:40:24;13.50;;;12.50;;
9924;SDS011;5001;51.674;7.868;2023-12-29T07:42:51;13.03;;;12.13;;
9924;SDS011;5001;51.674;7.868;2023-12-29T07:45:19;13.50;;;12.50;;
9924;SDS011;5001;51.674;7.868;2023-12-29T07:47:46;13.90;;;12.93;;
9924;SDS011;5001;51.674;7.868;2023-12-29T07:50:13;13.77;;;12.73;;
9924;SDS011;5001;51.674;7.868;2023-12-29T07:52:41;13.97;;;12.87;;
9924;SDS011;5001;51.674;7.868;2023-12-29T07:55:10;14.03;;;12.97;;
9924;SDS011;5001;51.674;7.868;2023-12-29T07:57:37;13.20;;;12.40;;
9924;SDS011;5001;51.674;7.868;2023-12-29T08:00:04;13.80;;;12.67;;
9924;SDS011;5001;51.674;7.868;2023-12-29T08:02:37;14.23;;;12.93;;
9924;SDS011;5001;51.674;7.868;2023-12-29T08:05:04;13.97;;;12.77;;
9924;SDS011;5001;51.674;7.868;2023-12-29T08:07:31;13.33;;;12.50;;
9924;SDS011;5001;51.674;7.868;2023-12-29T08:09:58;13.80;;;12.40;;
9924;SDS011;5001;51.674;7.868;2023-12-29T08:12:26;14.57;;;12.77;;
9924;SDS011;5001;51.674;7.868;2023-12-29T08:14:54;13.17;;;12.43;;
9924;SDS011;5001;51.674;7.868;2023-12-29T08:17:21;13.87;;;12.97;;
9924;SDS011;5001;51.674;7.868;2023-12-29T08:19:48;14.13;;;13.03;;
9924;SDS011;5001;51.674;7.868;2023-12-29T08:22:15;13.17;;;12.37;;
9924;SDS011;5001;51.674;7.868;2023-12-29T08:24:43;13.67;;;12.70;;
9924;SDS011;5001;51.674;7.868;2023-12-29T08:27:13;14.57;;;13.20;;
9924;SDS011;5001;51.674;7.868;2023-12-29T08:29:40;13.87;;;12.83;;
9924;SDS011;5001;51.674;7.868;2023-12-29T08:32:07;14.37;;;13.30;;
9924;SDS011;5001;51.674;7.868;2023-12-29T08:34:34;14.63;;;13.10;;
9924;SDS011;5001;51.674;7.868;2023-12-29T08:37:03;13.90;;;12.90;;
9924;SDS011;5001;51.674;7.868;2023-12-29T08:39:31;13.07;;;12.27;;
9924;SDS011;5001;51.674;7.868;2023-12-29T08:41:58;12.90;;;12.00;;
9924;SDS011;5001;51.674;7.868;2023-12-29T08:44:25;12.90;;;12.00;;
9924;SDS011;5001;51.674;7.868;2023-12-29T08:46:52;13.77;;;12.90;;
9924;SDS011;5001;51.674;7.868;2023-12-29T08:49:19;13.57;;;12.40;;
9924;SDS011;5001;51.674;7.868;2023-12-29T08:51:46;13.27;;;12.10;;
9924;SDS011;5001;51.674;7.868;2023-12-29T08:54:13;12.80;;;11.90;;
9924;SDS011;5001;51.674;7.868;2023-12-29T08:56:40;12.73;;;11.83;;
9924;SDS011;5001;51.674;7.868;2023-12-29T08:59:07;13.63;;;12.30;;
9924;SDS011;5001;51.674;7.868;2023-12-29T09:01:34;12.37;;;11.50;;
9924;SDS011;5001;51.674;7.868;2023-12-29T09:04:01;12.40;;;11.40;;
9924;SDS011;5001;51.674;7.868;2023-12-29T09:06:29;11.80;;;11.00;;
9924;SDS011;5001;51.674;7.868;2023-12-29T09:08:56;11.40;;;10.73;;
9924;SDS011;5001;51.674;7.868;2023-12-29T09:11:25;11.27;;;10.67;;
9924;SDS011;5001;51.674;7.868;2023-12-29T09:13:53;11.90;;;10.90;;
9924;SDS011;5001;51.674;7.868;2023-12-29T09:16:20;11.33;;;10.73;;
9924;SDS011;5001;51.674;7.868;2023-12-29T09:18:47;11.90;;;11.20;;
9924;SDS011;5001;51.674;7.868;2023-12-29T09:21:14;11.37;;;10.67;;
9924;SDS011;5001;51.674;7.868;2023-12-29T09:23:41;11.37;;;10.63;;
9924;SDS011;5001;51.674;7.868;2023-12-29T09:26:08;12.13;;;11.33;;
9924;SDS011;5001;51.674;7.868;2023-12-29T09:28:34;11.73;;;11.03;;
9924;SDS011;5001;51.674;7.868;2023-12-29T09:31:01;12.33;;;11.13;;
9924;SDS011;5001;51.674;7.868;2023-12-29T09:33:29;12.10;;;11.40;;
9924;SDS011;5001;51.674;7.868;2023-12-29T09:35:56;12.30;;;11.57;;
9924;SDS011;5001;51.674;7.868;2023-12-29T09:38:23;11.90;;;11.23;;
9924;SDS011;5001;51.674;7.868;2023-12-29T09:40:50;12.03;;;11.20;;
9924;SDS011;5001;51.674;7.868;2023-12-29T09:43:19;12.03;;;11.40;;
9924;SDS011;5001;51.674;7.868;2023-12-29T09:45:46;12.53;;;11.40;;
9924;SDS011;5001;51.674;7.868;2023-12-29T09:48:16;12.23;;;11.43;;
9924;SDS011;5001;51.674;7.868;2023-12-29T09:50:46;12.30;;;11.40;;
9924;SDS011;5001;51.674;7.868;2023-12-29T09:53:16;12.43;;;11.53;;
9924;SDS011;5001;51.674;7.868;2023-12-29T09:55:46;12.27;;;11.47;;
9924;SDS011;5001;51.674;7.868;2023-12-29T09:58:15;11.90;;;11.30;;
9924;SDS011;5001;51.674;7.868;2023-12-29T10:00:46;12.20;;;11.60;;
9924;SDS011;5001;51.674;7.868;2023-12-29T10:03:17;12.37;;;11.67;;
9924;SDS011;5001;51.674;7.868;2023-12-29T10:05:44;11.53;;;10.93;;
9924;SDS011;5001;51.674;7.868;2023-12-29T10:08:17;12.27;;;11.57;;
9924;SDS011;5001;51.674;7.868;2023-12-29T10:10:45;12.10;;;11.47;;
9924;SDS011;5001;51.674;7.868;2023-12-29T10:13:16;12.00;;;11.30;;
9924;SDS011;5001;51.674;7.868;2023-12-29T10:15:49;11.93;;;11.33;;
9924;SDS011;5001;51.674;7.868;2023-12-29T10:18:42;12.30;;;11.60;;
9924;SDS011;5001;51.674;7.868;2023-12-29T10:23:46;12.20;;;11.60;;
9924;SDS011;5001;51.674;7.868;2023-12-29T10:26:19;11.80;;;11.20;;
9924;SDS011;5001;51.674;7.868;2023-12-29T10:28:46;11.77;;;11.17;;
9924;SDS011;5001;51.674;7.868;2023-12-29T10:31:14;11.90;;;11.30;;
9924;SDS011;5001;51.674;7.868;2023-12-29T10:33:44;12.17;;;11.37;;
9924;SDS011;5001;51.674;7.868;2023-12-29T10:36:17;12.17;;;11.53;;
9924;SDS011;5001;51.674;7.868;2023-12-29T10:38:44;12.30;;;11.60;;
9924;SDS011;5001;51.674;7.868;2023-12-29T10:43:43;12.33;;;11.67;;
9924;SDS011;5001;51.674;7.868;2023-12-29T10:46:13;12.43;;;11.73;;
9924;SDS011;5001;51.674;7.868;2023-12-29T10:48:41;12.90;;;12.20;;
9924;SDS011;5001;51.674;7.868;2023-12-29T10:51:08;12.57;;;11.87;;
9924;SDS011;5001;51.674;7.868;2023-12-29T10:53:36;12.40;;;11.60;;
9924;SDS011;5001;51.674;7.868;2023-12-29T10:56:25;12.10;;;11.50;;
9924;SDS011;5001;51.674;7.868;2023-12-29T10:59:02;12.43;;;11.73;;
9924;SDS011;5001;51.674;7.868;2023-12-29T11:01:31;12.13;;;11.50;;
9924;SDS011;5001;51.674;7.868;2023-12-29T11:04:02;11.60;;;11.00;;
9924;SDS011;5001;51.674;7.868;2023-12-29T11:06:39;12.00;;;11.30;;
9924;SDS011;5001;51.674;7.868;2023-12-29T11:09:13;11.70;;;11.10;;
9924;SDS011;5001;51.674;7.868;2023-12-29T11:11:40;12.00;;;11.40;;
9924;SDS011;5001;51.674;7.868;2023-12-29T11:14:09;11.83;;;11.20;;
9924;SDS011;5001;51.674;7.868;2023-12-29T11:16:38;11.80;;;11.20;;
9924;SDS011;5001;51.674;7.868;2023-12-29T11:19:07;13.10;;;12.30;;
9924;SDS011;5001;51.674;7.868;2023-12-29T11:21:37;12.27;;;11.50;;
9924;SDS011;5001;51.674;7.868;2023-12-29T11:24:08;12.17;;;11.57;;
9924;SDS011;5001;51.674;7.868;2023-12-29T11:26:34;12.10;;;11.40;;
9924;SDS011;5001;51.674;7.868;2023-12-29T11:29:03;12.50;;;11.80;;
9924;SDS011;5001;51.674;7.868;2023-12-29T11:31:31;12.40;;;11.77;;
9924;SDS011;5001;51.674;7.868;2023-12-29T11:34:05;12.40;;;11.80;;
9924;SDS011;5001;51.674;7.868;2023-12-29T11:36:38;12.40;;;11.80;;
9924;SDS011;5001;51.674;7.868;2023-12-29T11:44:38;11.80;;;11.20;;
9924;SDS011;5001;51.674;7.868;2023-12-29T11:47:05;12.67;;;11.87;;
9924;SDS011;5001;51.674;7.868;2023-12-29T11:50:03;12.80;;;11.90;;
9924;SDS011;5001;51.674;7.868;2023-12-29T11:55:09;12.37;;;11.77;;
9924;SDS011;5001;51.674;7.868;2023-12-29T11:57:37;13.00;;;12.20;;
9924;SDS011;5001;51.674;7.868;2023-12-29T12:00:08;12.73;;;12.00;;
9924;SDS011;5001;51.674;7.868;2023-12-29T12:02:38;12.77;;;12.00;;
9924;SDS011;5001;51.674;7.868;2023-12-29T12:05:09;12.90;;;12.20;;
9924;SDS011;5001;51.674;7.868;2023-12-29T12:12:50;13.10;;;12.40;;
9924;SDS011;5001;51.674;7.868;2023-12-29T12:18:03;13.40;;;12.60;;
9924;SDS011;5001;51.674;7.868;2023-12-29T12:20:34;13.07;;;12.37;;
9924;SDS011;5001;51.674;7.868;2023-12-29T12:23:03;13.67;;;12.80;;
9924;SDS011;5001;51.674;7.868;2023-12-29T12:25:39;13.27;;;12.47;;
9924;SDS011;5001;51.674;7.868;2023-12-29T12:28:06;13.07;;;12.37;;
9924;SDS011;5001;51.674;7.868;2023-12-29T12:30:37;12.73;;;11.93;;
9924;SDS011;5001;51.674;7.868;2023-12-29T12:33:05;12.60;;;11.90;;
9924;SDS011;5001;51.674;7.868;2023-12-29T12:35:33;12.67;;;12.00;;
9924;SDS011;5001;51.674;7.868;2023-12-29T12:38:13;12.80;;;12.00;;
9924;SDS011;5001;51.674;7.868;2023-12-29T12:40:42;12.50;;;11.80;;
9924;SDS011;5001;51.674;7.868;2023-12-29T12:43:16;12.70;;;12.00;;
9924;SDS011;5001;51.674;7.868;2023-12-29T12:45:47;13.03;;;12.20;;
9924;SDS011;5001;51.674;7.868;2023-12-29T12:48:23;13.13;;;12.40;;
9924;SDS011;5001;51.674;7.868;2023-12-29T12:51:02;13.47;;;12.40;;
9924;SDS011;5001;51.674;7.868;2023-12-29T12:53:30;13.40;;;12.50;;
9924;SDS011;5001;51.674;7.868;2023-12-29T12:55:57;13.07;;;12.27;;
9924;SDS011;5001;51.674;7.868;2023-12-29T12:58:24;13.33;;;12.53;;
9924;SDS011;5001;51.674;7.868;2023-12-29T13:00:56;13.30;;;12.30;;
9924;SDS011;5001;51.674;7.868;2023-12-29T13:03:24;13.60;;;12.40;;
9924;SDS011;5001;51.674;7.868;2023-12-29T13:05:52;12.53;;;11.83;;
9924;SDS011;5001;51.674;7.868;2023-12-29T13:08:20;12.67;;;11.97;;
9924;SDS011;5001;51.674;7.868;2023-12-29T13:11:00;12.70;;;11.90;;
9924;SDS011;5001;51.674;7.868;2023-12-29T13:13:35;13.03;;;11.93;;
9924;SDS011;5001;51.674;7.868;2023-12-29T13:16:03;12.80;;;12.00;;
9924;SDS011;5001;51.674;7.868;2023-12-29T13:18:30;13.13;;;12.30;;
9924;SDS011;5001;51.674;7.868;2023-12-29T13:20:58;13.17;;;12.43;;
9924;SDS011;5001;51.674;7.868;2023-12-29T13:23:25;13.57;;;12.50;;
9924;SDS011;5001;51.674;7.868;2023-12-29T13:25:59;13.67;;;12.47;;
9924;SDS011;5001;51.674;7.868;2023-12-29T13:28:28;13.43;;;12.53;;
9924;SDS011;5001;51.674;7.868;2023-12-29T13:30:56;13.13;;;12.43;;
9924;SDS011;5001;51.674;7.868;2023-12-29T13:35:54;12.63;;;11.93;;
9924;SDS011;5001;51.674;7.868;2023-12-29T13:38:34;14.00;;;12.70;;
9924;SDS011;5001;51.674;7.868;2023-12-29T13:41:12;12.73;;;11.90;;
9924;SDS011;5001;51.674;7.868;2023-12-29T13:43:42;12.50;;;11.90;;
9924;SDS011;5001;51.674;7.868;2023-12-29T13:46:12;12.97;;;11.90;;
9924;SDS011;5001;51.674;7.868;2023-12-29T13:48:42;12.70;;;11.90;;
9924;SDS011;5001;51.674;7.868;2023-12-29T13:51:11;12.20;;;11.60;;
9924;SDS011;5001;51.674;7.868;2023-12-29T13:53:38;12.00;;;11.40;;
9924;SDS011;5001;51.674;7.868;2023-12-29T13:56:06;12.83;;;11.87;;
9924;SDS011;5001;51.674;7.868;2023-12-29T13:58:36;12.00;;;11.30;;
9924;SDS011;5001;51.674;7.868;2023-12-29T14:01:05;11.80;;;11.10;;
9924;SDS011;5001;51.674;7.868;2023-12-29T14:03:46;10.73;;;10.13;;
9924;SDS011;5001;51.674;7.868;2023-12-29T14:06:27;11.17;;;10.47;;
9924;SDS011;5001;51.674;7.868;2023-12-29T14:08:58;11.10;;;10.20;;
9924;SDS011;5001;51.674;7.868;2023-12-29T14:11:25;11.00;;;10.40;;
9924;SDS011;5001;51.674;7.868;2023-12-29T14:13:52;10.77;;;10.17;;
9924;SDS011;5001;51.674;7.868;2023-12-29T14:16:19;10.33;;;9.70;;
9924;SDS011;5001;51.674;7.868;2023-12-29T14:18:54;10.40;;;9.80;;
9924;SDS011;5001;51.674;7.868;2023-12-29T14:21:24;9.77;;;9.20;;
9924;SDS011;5001;51.674;7.868;2023-12-29T14:23:59;9.87;;;9.30;;
9924;SDS011;5001;51.674;7.868;2023-12-29T14:26:38;9.90;;;9.33;;
9924;SDS011;5001;51.674;7.868;2023-12-29T14:29:11;9.53;;;8.83;;
9924;SDS011;5001;51.674;7.868;2023-12-29T14:31:39;9.60;;;9.00;;
9924;SDS011;5001;51.674;7.868;2023-12-29T14:34:08;9.67;;;9.17;;
9924;SDS011;5001;51.674;7.868;2023-12-29T14:36:36;9.47;;;9.00;;
9924;SDS011;5001;51.674;7.868;2023-12-29T14:39:05;10.00;;;9.50;;
9924;SDS011;5001;51.674;7.868;2023-12-29T14:41:32;9.83;;;9.33;;
9924;SDS011;5001;51.674;7.868;2023-12-29T14:44:00;10.20;;;9.50;;
9924;SDS011;5001;51.674;7.868;2023-12-29T14:46:26;9.60;;;9.10;;
9924;SDS011;5001;51.674;7.868;2023-12-29T14:48:54;9.67;;;9.17;;
9924;SDS011;5001;51.674;7.868;2023-12-29T14:51:24;9.90;;;9.40;;
9924;SDS011;5001;51.674;7.868;2023-12-29T14:53:51;9.87;;;9.27;;
9924;SDS011;5001;51.674;7.868;2023-12-29T14:56:18;9.90;;;9.30;;
9924;SDS011;5001;51.674;7.868;2023-12-29T14:58:45;9.90;;;9.27;;
9924;SDS011;5001;51.674;7.868;2023-12-29T15:01:13;9.80;;;9.30;;
9924;SDS011;5001;51.674;7.868;2023-12-29T15:03:40;9.40;;;8.90;;
9924;SDS011;5001;51.674;7.868;2023-12-29T15:06:07;8.67;;;8.27;;
9924;SDS011;5001;51.674;7.868;2023-12-29T15:08:34;9.17;;;8.67;;
9924;SDS011;5001;51.674;7.868;2023-12-29T15:11:02;8.73;;;8.13;;
9924;SDS011;5001;51.674;7.868;2023-12-29T15:13:29;8.40;;;7.97;;
9924;SDS011;5001;51.674;7.868;2023-12-29T15:15:57;8.33;;;7.90;;
9924;SDS011;5001;51.674;7.868;2023-12-29T15:18:26;8.40;;;7.90;;
9924;SDS011;5001;51.674;7.868;2023-12-29T15:20:54;8.50;;;8.00;;
9924;SDS011;5001;51.674;7.868;2023-12-29T15:23:21;8.67;;;8.03;;
9924;SDS011;5001;51.674;7.868;2023-12-29T15:25:49;9.10;;;8.30;;
9924;SDS011;5001;51.674;7.868;2023-12-29T15:28:17;8.90;;;8.40;;
9924;SDS011;5001;51.674;7.868;2023-12-29T15:30:45;9.13;;;8.43;;
9924;SDS011;5001;51.674;7.868;2023-12-29T15:33:13;9.33;;;8.50;;
9924;SDS011;5001;51.674;7.868;2023-12-29T15:35:40;9.13;;;8.63;;